Terminal Aerodrome Forecast
Issued by NWS

Home | Current Version | Previous Version | Text Only | Print | Product List | Glossary Off
Versions: 1 2 3 4 5 6 7 8 9 10 11 12 13 14 15 16 17 18 19 20 21 22 23 24 25 26 27

000
FTUS43 KABR 260652 AAC
TAFMBG
TAF AMD
KMBG 260652Z 2607/2706 15007KT P6SM OVC015
     FM260900 12005KT 3SM BR OVC008
     FM261500 VRB03KT 5SM BR OVC025
     FM261700 VRB03KT P6SM OVC050=

USA.gov is the U.S. government's official web portal to all federal, state and local government web resources and services.